Aurora — ZCDW9 — position and weather

sailwx.info

Track history (hours):
 
Tides and Currents Weather Stations Pressure Air Temp Water Temp Dewpoint Dewpoint Depression Visibility Wind Speed Wind Dir Waves Ship Positions

Aurora (Bermuda)

Last reported at 2019-Jul-19 12:00 UTC. Time now 2019-Jul-19 19:11 UTC.
Position N 55°36' E 003°30'.

Length 271 m; draft 8.3 m.

Type: Ship. MMSI: 310555970.

Wind from 220 at 12 knots

Barometer 1011.1 mb
Air temperature 16.5 ° C
Visibility: greater than 27.0 NM
Dewpoint 13.9 ° C
Water temperature 15.0 ° C

Date/timePositionNaut miles runAvg speedWind from/ knotsBaromVisibWave heightAir tempDewpointWater temp
2019-Jul-19 12:00N 55°36' E 003°30'6210.9 220 / 121011.127.0 16.513.915.0
2019-Jul-19 06:21N 56°37' E 003°48'1311.6
2019-Jul-19 05:14N 56°49' E 003°54'1145.5
2019-Jul-19 05:00N 57°00' E 004°00'622.5 220 / 81008.710.8 14.513.613.0
2019-Jul-19 04:45N 56°55' E 003°57'411.8
2019-Jul-19 04:25N 56°59' E 003°58'1211.8
2019-Jul-19 03:25N 57°10' E 004°04'512.0
2019-Jul-19 03:00N 57°15' E 004°06'612.0
2019-Jul-19 02:30N 57°21' E 004°09'812.0
2019-Jul-19 01:50N 57°28' E 004°13'412.2
2019-Jul-19 01:29N 57°32' E 004°16'612.1
2019-Jul-19 01:00N 57°38' E 004°21'612.3
2019-Jul-19 00:30N 57°43' E 004°25'612.4
2019-Jul-19 00:00N 57°49' E 004°28'814.7
2019-Jul-18 23:30N 57°56' E 004°32'918.2
2019-Jul-18 23:00N 58°05' E 004°37'714.3
2019-Jul-18 22:30N 58°12' E 004°41'611.9
2019-Jul-18 22:00N 58°18' E 004°44'612.0
2019-Jul-18 21:30N 58°23' E 004°48'611.9
2019-Jul-18 21:00N 58°29' E 004°51'611.3
2019-Jul-18 20:30N 58°34' E 004°54'510.8
2019-Jul-18 20:00N 58°39' E 004°57'510.6
2019-Jul-18 19:30N 58°45' E 005°00'510.5
2019-Jul-18 19:00N 58°50' E 005°04'510.4
2019-Jul-18 18:30N 58°55' E 005°06'510.9
2019-Jul-18 18:00N 58°60' E 005°09'611.2
2019-Jul-18 17:31N 59°05' E 005°12'4 8.2
2019-Jul-18 17:00N 59°08' E 005°07'714.3
2019-Jul-18 16:30N 59°15' E 005°06'714.1
2019-Jul-18 16:00N 59°22' E 005°06'5 9.6
2019-Jul-18 15:30N 59°26' E 005°13'1 2.8
2019-Jul-18 15:00N 59°25' E 005°15'0 0.0
2019-Jul-18 14:30N 59°25' E 005°15'0 0.0
2019-Jul-18 14:00N 59°25' E 005°15'0 0.0
2019-Jul-18 13:30N 59°25' E 005°15'0 0.0
2019-Jul-18 13:00N 59°25' E 005°15'0 0.0
2019-Jul-18 12:30N 59°25' E 005°15'0 0.0
2019-Jul-18 12:00N 59°25' E 005°15'0 0.0
2019-Jul-18 11:30N 59°25' E 005°15'0 0.0
2019-Jul-18 11:00N 59°25' E 005°15'0 0.0
2019-Jul-18 10:30N 59°25' E 005°15'0 0.0
2019-Jul-18 10:00N 59°25' E 005°15'0 0.0
2019-Jul-18 09:30N 59°25' E 005°15'0 0.0
2019-Jul-18 09:00N 59°25' E 005°15'0 0.0
2019-Jul-18 08:30N 59°25' E 005°15'0 0.0
2019-Jul-18 08:00N 59°25' E 005°15'0 0.0
2019-Jul-18 07:30N 59°25' E 005°15'0 0.0
2019-Jul-18 07:00N 59°25' E 005°15'0 0.0
2019-Jul-18 06:30N 59°25' E 005°15'0 0.9
2019-Jul-18 06:00N 59°25' E 005°15'611.3
2019-Jul-18 05:30N 59°28' E 005°06'815.5
2019-Jul-18 05:00N 59°32' E 004°53'816.2
2019-Jul-18 04:30N 59°37' E 004°39'816.5
2019-Jul-18 04:00N 59°44' E 004°34'816.2
2019-Jul-18 03:30N 59°52' E 004°31'816.1
2019-Jul-18 03:00N 60°00' E 004°28'816.2
2019-Jul-18 02:30N 60°08' E 004°27'816.4
2019-Jul-18 02:00N 60°16' E 004°24'816.7
2019-Jul-18 01:30N 60°25' E 004°22'816.8
2019-Jul-18 01:00N 60°33' E 004°20'816.8
2019-Jul-18 00:30N 60°41' E 004°20'816.8
2019-Jul-18 00:00N 60°50' E 004°18'917.1
2019-Jul-17 23:30N 60°58' E 004°17'917.7
2019-Jul-17 23:00N 61°07' E 004°18'917.4
2019-Jul-17 22:30N 61°16' E 004°18'5 9.5
2019-Jul-17 22:00N 61°12' E 004°12'1311537.5 180 / 251012.110.8 13.510.613.5
2019-Jul-17 21:59N 61°25' E 004°18'816.8
2019-Jul-17 21:29N 61°33' E 004°19'817.0
2019-Jul-17 21:00N 61°41' E 004°24'816.3
2019-Jul-17 20:30N 61°49' E 004°30'816.9
2019-Jul-17 20:00N 61°56' E 004°40'815.9
2019-Jul-17 19:30N 61°58' E 004°56'816.1
2019-Jul-17 19:00N 61°54' E 005°10'816.6
2019-Jul-17 18:30N 61°55' E 005°28'714.3
2019-Jul-17 18:00N 61°54' E 005°42'815.8
2019-Jul-17 17:30N 61°52' E 005°58'816.7
2019-Jul-17 17:00N 61°51' E 006°16'815.7
2019-Jul-17 16:30N 61°50' E 006°33'810.4
2019-Jul-17 15:47N 61°51' E 006°49'0 0.0
2019-Jul-17 04:18N 61°51' E 006°49'2 8.2
2019-Jul-17 04:00N 61°52' E 006°44'714.4
2019-Jul-17 03:30N 61°50' E 006°30'816.6
2019-Jul-17 03:00N 61°51' E 006°13'816.8
2019-Jul-17 02:30N 61°52' E 005°55'713.7
2019-Jul-17 02:00N 61°54' E 005°41'917.0
2019-Jul-17 01:30N 61°55' E 005°23'815.0
2019-Jul-17 01:00N 61°55' E 005°07'713.4
2019-Jul-17 00:30N 61°58' E 004°55'815.4
2019-Jul-17 00:00N 62°01' E 004°40'816.0
2019-Jul-16 23:30N 62°06' E 004°27'816.9
2019-Jul-16 23:00N 62°14' E 004°34'918.6
2019-Jul-16 22:30N 62°22' E 004°43'918.2
2019-Jul-16 22:00N 62°30' E 004°53'918.0
2019-Jul-16 21:30N 62°37' E 005°05'918.1
2019-Jul-16 21:00N 62°44' E 005°18'918.0
2019-Jul-16 20:29N 62°50' E 005°32'918.0
2019-Jul-16 20:00N 62°57' E 005°45'917.8
2019-Jul-16 19:30N 62°58' E 006°04'917.5
2019-Jul-16 19:00N 62°58' E 006°24'917.6
2019-Jul-16 18:30N 62°57' E 006°43'817.2
2019-Jul-16 18:00N 62°52' E 006°58'815.9
2019-Jul-16 17:30N 62°44' E 006°57'917.6
2019-Jul-16 17:00N 62°39' E 007°13'92247.8
2019-Jul-16 17:00N 62°42' E 006°54'1836.0 060 / 191017.310.8 15.5 8.715.0
2019-Jul-16 16:30N 62°34' E 007°28'612.4
2019-Jul-16 16:00N 62°34' E 007°41'0 0.5
2019-Jul-16 15:29N 62°34' E 007°42'0 0.0
2019-Jul-16 14:59N 62°34' E 007°42'0 0.0
2019-Jul-16 14:29N 62°34' E 007°42'0 0.0
2019-Jul-16 13:59N 62°34' E 007°42'0 0.0
2019-Jul-16 13:29N 62°34' E 007°42'0 0.0
2019-Jul-16 12:59N 62°34' E 007°42'0 0.0
2019-Jul-16 12:29N 62°34' E 007°42'0 0.0
2019-Jul-16 11:59N 62°34' E 007°42'0 0.0
2019-Jul-16 11:29N 62°34' E 007°42'0 0.0
2019-Jul-16 10:59N 62°34' E 007°42'0 0.0
2019-Jul-16 10:29N 62°34' E 007°42'0 0.0
2019-Jul-16 09:59N 62°34' E 007°42'0 0.0
2019-Jul-16 09:29N 62°34' E 007°42'0 0.0
2019-Jul-16 08:59N 62°34' E 007°42'0 0.0
2019-Jul-16 08:29N 62°34' E 007°42'0 0.0
2019-Jul-16 07:59N 62°34' E 007°42'0 0.0
2019-Jul-16 07:29N 62°34' E 007°42'0 0.0
2019-Jul-16 06:59N 62°34' E 007°42'0 0.0
2019-Jul-16 06:29N 62°34' E 007°42'0 0.0
2019-Jul-16 05:59N 62°34' E 007°42'0 0.1
2019-Jul-16 05:30N 62°34' E 007°42'1 2.8
2019-Jul-16 05:00N 62°34' E 007°39'611.8
2019-Jul-16 04:30N 62°35' E 007°26'815.2
2019-Jul-16 04:00N 62°39' E 007°12'815.4
2019-Jul-16 03:30N 62°43' E 006°58'815.5
2019-Jul-16 03:00N 62°51' E 006°59'714.8
2019-Jul-16 02:30N 62°56' E 006°47'714.9
2019-Jul-16 02:00N 63°02' E 006°38'714.0
2019-Jul-16 01:30N 63°08' E 006°30'510.4
2019-Jul-16 01:00N 63°10' E 006°19'612.5
2019-Jul-16 00:30N 63°06' E 006°09'612.4
2019-Jul-16 00:00N 63°01' E 005°59'612.6
2019-Jul-15 23:30N 62°58' E 005°48'612.5
2019-Jul-15 23:00N 62°54' E 005°37'612.4
2019-Jul-15 22:30N 62°49' E 005°28'612.2
2019-Jul-15 22:00N 62°45' E 005°18'611.2
2019-Jul-15 21:30N 62°40' E 005°12'815.1
2019-Jul-15 21:00N 62°36' E 005°25'815.2
2019-Jul-15 20:30N 62°32' E 005°39'715.0
2019-Jul-15 20:00N 62°28' E 005°53'713.0
2019-Jul-15 19:30N 62°24' E 006°04'714.6
2019-Jul-15 19:00N 62°24' E 006°20'815.2
2019-Jul-15 18:30N 62°26' E 006°36'714.3
2019-Jul-15 18:00N 62°26' E 006°51'713.8
2019-Jul-15 17:30N 62°20' E 006°57'714.5
2019-Jul-15 17:00N 62°13' E 007°02'713.8
2019-Jul-15 16:30N 62°07' E 006°58'611.6
2019-Jul-15 16:00N 62°07' E 007°10'1 2.2
2019-Jul-15 15:30N 62°06' E 007°12'0 0.0
2019-Jul-15 15:00N 62°06' E 007°12'0 0.0
2019-Jul-15 14:30N 62°06' E 007°12'0 0.0
2019-Jul-15 14:00N 62°06' E 007°12'0 0.0
2019-Jul-15 13:30N 62°06' E 007°12'0 0.0
2019-Jul-15 13:00N 62°06' E 007°12'0 0.0
2019-Jul-15 12:30N 62°06' E 007°12'0 0.0
2019-Jul-15 12:00N 62°06' E 007°12'0 0.0
2019-Jul-15 11:30N 62°06' E 007°12'0 0.0
2019-Jul-15 11:00N 62°06' E 007°12'0 0.0
2019-Jul-15 10:30N 62°06' E 007°12'0 0.0
2019-Jul-15 10:00N 62°06' E 007°12'0 0.0
2019-Jul-15 09:30N 62°06' E 007°12'0 0.0
2019-Jul-15 09:00N 62°06' E 007°12'0 0.0
2019-Jul-15 08:30N 62°06' E 007°12'0 0.0
2019-Jul-15 08:00N 62°06' E 007°12'0 0.0
2019-Jul-15 07:30N 62°06' E 007°12'0 0.0
2019-Jul-15 07:00N 62°06' E 007°12'0 0.0
2019-Jul-15 06:30N 62°06' E 007°12'0 0.0
2019-Jul-15 06:00N 62°06' E 007°12'0 0.0
2019-Jul-15 05:30N 62°06' E 007°12'0 0.5
2019-Jul-15 05:00N 62°06' E 007°11'2 4.4
2019-Jul-15 04:30N 62°07' E 007°07'3 6.6
2019-Jul-15 04:00N 62°06' E 006°60'3 6.0
2019-Jul-15 03:30N 62°06' E 006°53'1 0.2
2019-Jul-14 23:40N 62°05' E 006°53'0 0.0
2019-Jul-14 23:28N 62°05' E 006°53'0 0.0
2019-Jul-14 22:52N 62°05' E 006°53'0 0.0
2019-Jul-14 22:28N 62°05' E 006°53'0 0.0
2019-Jul-14 21:58N 62°05' E 006°53'0 0.0
2019-Jul-14 21:22N 62°05' E 006°53'0 0.0
2019-Jul-14 20:58N 62°05' E 006°53'0 0.0
2019-Jul-14 20:28N 62°05' E 006°53'0 0.0
2019-Jul-14 19:58N 62°05' E 006°53'0 0.0
2019-Jul-14 19:28N 62°05' E 006°53'0 0.0
2019-Jul-14 18:58N 62°05' E 006°53'0 0.0
2019-Jul-14 18:28N 62°05' E 006°53'0 0.0
2019-Jul-14 17:52N 62°05' E 006°53'0 0.0
2019-Jul-14 17:28N 62°05' E 006°53'0 0.0
2019-Jul-14 16:58N 62°05' E 006°53'0 0.0
2019-Jul-14 16:28N 62°05' E 006°53'0 0.0
2019-Jul-14 15:58N 62°05' E 006°53'0 0.1
2019-Jul-14 15:30N 62°05' E 006°53'2 4.7
2019-Jul-14 15:00N 62°07' E 006°56'612.1
2019-Jul-14 14:30N 62°12' E 007°02'612.2
2019-Jul-14 14:00N 62°18' E 006°59'714.1
2019-Jul-14 13:29N 62°25' E 006°55'714.5
2019-Jul-14 13:00N 62°27' E 006°41'815.2
2019-Jul-14 12:30N 62°24' E 006°25'714.8
2019-Jul-14 12:00N 62°23' E 006°10'714.1
2019-Jul-14 11:30N 62°26' E 005°56'715.0
2019-Jul-14 11:00N 62°30' E 005°43'815.0
2019-Jul-14 10:30N 62°33' E 005°28'714.6
2019-Jul-14 10:00N 62°36' E 005°13'510.6
2019-Jul-14 09:30N 62°35' E 005°02'611.4
2019-Jul-14 09:00N 62°30' E 004°55'611.4
2019-Jul-14 08:30N 62°25' E 004°48'611.2
2019-Jul-14 08:00N 62°21' E 004°42'611.0
2019-Jul-14 07:30N 62°16' E 004°35'510.8
2019-Jul-14 07:00N 62°12' E 004°29'610.9
2019-Jul-14 06:30N 62°07' E 004°23'511.0
2019-Jul-14 06:00N 62°02' E 004°16'510.8
2019-Jul-14 05:30N 61°57' E 004°14'611.1
2019-Jul-14 05:00N 61°52' E 004°14'611.6
2019-Jul-14 04:30N 61°46' E 004°14'612.1
2019-Jul-14 04:00N 61°40' E 004°15'611.9
2019-Jul-14 03:30N 61°34' E 004°17'612.2
2019-Jul-14 03:00N 61°28' E 004°19'815.0
2019-Jul-14 02:30N 61°21' E 004°21'714.8
2019-Jul-14 02:00N 61°13' E 004°22'714.6
2019-Jul-14 01:30N 61°06' E 004°22'714.6
2019-Jul-14 01:00N 60°59' E 004°24'714.1
2019-Jul-14 00:30N 60°52' E 004°29'611.2
2019-Jul-14 00:00N 60°53' E 004°40'715.1
2019-Jul-13 23:30N 60°59' E 004°47'816.3
2019-Jul-13 23:00N 61°04' E 005°01'714.3
2019-Jul-13 22:30N 61°05' E 005°15'713.9
2019-Jul-13 22:00N 61°05' E 005°30'714.9
2019-Jul-13 21:30N 61°07' E 005°44'714.1
2019-Jul-13 21:00N 61°08' E 005°58'713.9
2019-Jul-13 20:31N 61°07' E 006°12'713.3
2019-Jul-13 20:00N 61°06' E 006°26'713.1
2019-Jul-13 19:30N 61°10' E 006°36'713.1
2019-Jul-13 19:00N 61°10' E 006°49'713.8
2019-Jul-13 18:30N 61°05' E 007°00'714.4
2019-Jul-13 18:00N 60°58' E 007°05'5 9.5
2019-Jul-13 17:30N 60°54' E 007°09'2 4.9
2019-Jul-13 17:00N 60°52' E 007°07'0 0.0
2019-Jul-13 16:30N 60°52' E 007°07'0 0.0
2019-Jul-13 16:00N 60°52' E 007°07'0 0.0
2019-Jul-13 15:30N 60°52' E 007°07'0 0.0
2019-Jul-13 15:00N 60°52' E 007°07'0 0.0
2019-Jul-13 14:30N 60°52' E 007°07'0 0.0
2019-Jul-13 14:00N 60°52' E 007°07'0 0.0
2019-Jul-13 13:30N 60°52' E 007°07'0 0.0
2019-Jul-13 13:00N 60°52' E 007°07'0 0.0
2019-Jul-13 12:30N 60°52' E 007°07'0 0.0
2019-Jul-13 12:00N 60°52' E 007°07'0 0.0
2019-Jul-13 11:30N 60°52' E 007°07'0 0.0
2019-Jul-13 11:00N 60°52' E 007°07'0 0.0
2019-Jul-13 10:30N 60°52' E 007°07'0 0.0
2019-Jul-13 10:00N 60°52' E 007°07'0 0.0
2019-Jul-13 09:30N 60°52' E 007°07'0 0.0
2019-Jul-13 09:00N 60°52' E 007°07'0 0.0
2019-Jul-13 08:30N 60°52' E 007°07'0 0.0
2019-Jul-13 08:00N 60°52' E 007°07'0 0.0
2019-Jul-13 07:30N 60°52' E 007°07'0 0.0
2019-Jul-13 07:00N 60°52' E 007°07'0 0.0
2019-Jul-13 06:30N 60°52' E 007°07'0 0.0
2019-Jul-13 06:00N 60°52' E 007°07'0 0.5
2019-Jul-13 05:28N 60°52' E 007°08'4 8.6
2019-Jul-13 05:00N 60°56' E 007°10'713.3
2019-Jul-13 04:30N 61°01' E 007°02'815.5
2019-Jul-13 04:00N 61°08' E 006°54'816.6
2019-Jul-13 03:30N 61°11' E 006°38'816.3
2019-Jul-13 03:00N 61°06' E 006°25'918.9
2019-Jul-13 02:30N 61°08' E 006°05'918.7
2019-Jul-13 02:00N 61°08' E 005°46'918.6
2019-Jul-13 01:30N 61°04' E 005°28'917.3
2019-Jul-13 01:00N 61°06' E 005°10'917.8
2019-Jul-13 00:30N 61°02' E 004°54'917.6
2019-Jul-13 00:00N 60°56' E 004°41'917.3
2019-Jul-12 23:30N 60°48' E 004°31'918.1
2019-Jul-12 23:00N 60°41' E 004°20'816.3
2019-Jul-12 22:30N 60°33' E 004°17'917.9
2019-Jul-12 22:00N 60°24' E 004°21'817.0
2019-Jul-12 21:30N 60°16' E 004°25'917.6
2019-Jul-12 21:00N 60°08' E 004°29'917.5
2019-Jul-12 20:30N 60°03' E 004°42'917.7
2019-Jul-12 20:00N 59°58' E 004°58'917.1
2019-Jul-12 19:30N 59°58' E 005°15'815.9
2019-Jul-12 19:00N 59°55' E 005°30'715.0
2019-Jul-12 18:30N 59°49' E 005°36'816.3
2019-Jul-12 18:00N 59°55' E 005°45'918.5
2019-Jul-12 17:30N 60°02' E 005°58'816.8
2019-Jul-12 17:00N 60°10' E 006°05'816.7
2019-Jul-12 16:30N 60°17' E 006°13'917.6
2019-Jul-12 16:00N 60°24' E 006°24'816.0
2019-Jul-12 15:30N 60°25' E 006°40'816.5
2019-Jul-12 15:00N 60°29' E 006°55'4 8.6
2019-Jul-12 14:30N 60°28' E 007°04'0 0.0
2019-Jul-12 14:00N 60°28' E 007°04'0 0.0
2019-Jul-12 13:27N 60°28' E 007°04'0 0.0
2019-Jul-12 12:57N 60°28' E 007°04'0 0.0
2019-Jul-12 12:30N 60°28' E 007°04'0 0.0
2019-Jul-12 12:00N 60°28' E 007°04'0 0.0
2019-Jul-12 11:24N 60°28' E 007°04'0 0.0
2019-Jul-12 10:57N 60°28' E 007°04'0 0.0
2019-Jul-12 10:30N 60°28' E 007°04'0 0.0
2019-Jul-12 09:54N 60°28' E 007°04'0 0.0
2019-Jul-12 09:30N 60°28' E 007°04'0 0.0
2019-Jul-12 09:00N 60°28' E 007°04'0 0.0
2019-Jul-12 08:30N 60°28' E 007°04'0 0.0
2019-Jul-12 08:00N 60°28' E 007°04'0 0.0
2019-Jul-12 07:30N 60°28' E 007°04'0 0.0
2019-Jul-12 06:36N 60°28' E 007°04'0 0.0
2019-Jul-12 06:30N 60°28' E 007°04'0 0.0
2019-Jul-12 05:39N 60°28' E 007°04'0 0.0
2019-Jul-12 05:30N 60°28' E 007°04'0 0.1
2019-Jul-12 05:00N 60°28' E 007°04'2 3.2
2019-Jul-12 04:30N 60°29' E 007°01'611.8
2019-Jul-12 04:00N 60°29' E 006°49'612.2
2019-Jul-12 03:30N 60°26' E 006°38'714.0
2019-Jul-12 03:00N 60°24' E 006°25'1615.8
2019-Jul-12 02:00N 60°12' E 006°04'715.0
2019-Jul-12 01:30N 60°04' E 006°02'816.4
2019-Jul-12 01:00N 59°58' E 005°51'9840.7
2019-Jul-12 01:00N 60°06' E 006°00'1734.5 220 / 51014.6 5.4 13.013.013.9
2019-Jul-12 00:30N 59°52' E 005°41'816.0
2019-Jul-12 00:00N 59°45' E 005°32'815.9
2019-Jul-11 23:31N 59°40' E 005°21'815.7
2019-Jul-11 23:00N 59°33' E 005°13'713.5
2019-Jul-11 22:30N 59°29' E 005°03'917.2
2019-Jul-11 22:00N 59°29' E 004°46'816.7
2019-Jul-11 21:30N 59°29' E 004°29'612.8
2019-Jul-11 21:00N 59°29' E 004°17'510.0
2019-Jul-11 20:30N 59°26' E 004°10'612.1
2019-Jul-11 20:00N 59°20' E 004°14'612.1
2019-Jul-11 19:30N 59°14' E 004°18'612.2
2019-Jul-11 19:00N 59°09' E 004°24'612.2
2019-Jul-11 18:30N 59°04' E 004°30'611.8
2019-Jul-11 18:00N 59°02' E 004°41'815.1
2019-Jul-11 17:30N 59°02' E 004°56'816.9
2019-Jul-11 17:01N 59°03' E 005°12'510.3
2019-Jul-11 16:31N 59°05' E 005°21'2 3.3
2019-Jul-11 16:01N 59°07' E 005°21'612.9
2019-Jul-11 15:31N 59°05' E 005°33'713.9
2019-Jul-11 15:00N 58°60' E 005°42'2 3.0
2019-Jul-11 14:30N 58°58' E 005°44'0 0.0
2019-Jul-11 14:00N 58°58' E 005°44'0 0.0
2019-Jul-11 13:30N 58°58' E 005°44'0 0.0
2019-Jul-11 13:00N 58°58' E 005°44'0 0.0
2019-Jul-11 12:30N 58°58' E 005°44'0 0.0
2019-Jul-11 12:00N 58°58' E 005°44'0 0.0
2019-Jul-11 10:57N 58°58' E 005°44'0 0.0
2019-Jul-11 10:27N 58°58' E 005°44'0 0.0
2019-Jul-11 09:51N 58°58' E 005°44'0 0.0
2019-Jul-11 09:27N 58°58' E 005°44'0 0.0
2019-Jul-11 08:42N 58°58' E 005°44'0 0.0
2019-Jul-11 08:30N 58°58' E 005°44'0 0.0
2019-Jul-11 07:45N 58°58' E 005°44'0 0.0
2019-Jul-11 07:02N 58°58' E 005°44'0 0.3
2019-Jul-11 06:59N 58°58' E 005°44'1 1.5
2019-Jul-11 06:29N 58°59' E 005°43'612.7
2019-Jul-11 06:00N 59°03' E 005°34'714.5
2019-Jul-11 05:31N 58°56' E 005°33'511.0
2019-Jul-11 05:00N 58°51' E 005°29'510.6
2019-Jul-11 04:30N 58°47' E 005°22'815.1
2019-Jul-11 04:00N 58°40' E 005°16'816.3
2019-Jul-11 03:29N 58°32' E 005°11'816.1
2019-Jul-11 03:00N 58°25' E 005°06'817.1
2019-Jul-11 02:31N 58°17' E 005°02'918.4
2019-Jul-11 02:00N 58°08' E 004°58'918.1
2019-Jul-11 01:30N 57°59' E 004°53'918.2
2019-Jul-11 01:00N 57°51' E 004°46'1017.7
2019-Jul-11 00:25N 57°41' E 004°39'717.7
2019-Jul-11 00:00N 57°35' E 004°31'917.8
2019-Jul-10 23:30N 57°27' E 004°25'1418.2
2019-Jul-10 22:43N 57°13' E 004°16'10121.5
2019-Jul-10 18:00N 55°36' E 003°24'15316.4 270 / 6 2.2 15.514.614.0
2019-Jul-10 08:38N 53°06' E 002°30'320.1
2019-Jul-10 08:31N 53°03' E 002°30'1020.3
2019-Jul-10 08:01N 52°53' E 002°28'1020.2
2019-Jul-10 07:30N 52°43' E 002°26'1019.9
2019-Jul-10 07:00N 52°33' E 002°23'1019.7
2019-Jul-10 06:30N 52°24' E 002°20'1019.4
2019-Jul-10 06:00N 52°14' E 002°16'918.7
2019-Jul-10 05:30N 52°05' E 002°15'918.5
2019-Jul-10 05:01N 51°56' E 002°16'917.7
2019-Jul-10 04:31N 51°47' E 002°13'918.0
2019-Jul-10 04:00N 51°40' E 002°05'917.9
2019-Jul-10 03:31N 51°33' E 001°55'815.4
2019-Jul-10 03:00N 51°26' E 001°59'714.1
2019-Jul-10 02:31N 51°19' E 002°02'917.2
2019-Jul-10 02:01N 51°14' E 001°51'816.6
2019-Jul-10 01:30N 51°08' E 001°42'816.5
2019-Jul-10 01:00N 51°01' E 001°34'816.6
2019-Jul-10 00:30N 50°55' E 001°25'816.9
2019-Jul-10 00:00N 50°47' E 001°21'816.4
2019-Jul-09 23:30N 50°40' E 001°15'917.3
2019-Jul-09 23:00N 50°34' E 001°05'917.4
2019-Jul-09 22:30N 50°30' E 000°53'917.3
2019-Jul-09 22:00N 50°28' E 000°40'917.1
2019-Jul-09 21:30N 50°25' E 000°27'817.0
2019-Jul-09 21:00N 50°23' E 000°14'816.8
2019-Jul-09 20:31N 50°21' E 000°01'816.1
2019-Jul-09 20:00N 50°23' W 000°11'917.1
2019-Jul-09 19:31N 50°28' W 000°22'917.0
2019-Jul-09 19:01N 50°32' W 000°34'816.4
2019-Jul-09 18:31N 50°36' W 000°45'815.7
2019-Jul-09 18:01N 50°40' W 000°56'612.7
2019-Jul-09 17:31N 50°44' W 001°04'713.3
2019-Jul-09 17:00N 50°46' W 001°14'4 8.6
2019-Jul-09 16:30N 50°49' W 001°18'510.2
2019-Jul-09 16:00N 50°53' W 001°24'2 3.7
2019-Jul-09 15:28N 50°54' W 001°26'0 0.0
2019-Jul-09 14:58N 50°54' W 001°26'0 0.0
2019-Jul-09 14:28N 50°54' W 001°26'0 0.0
2019-Jul-09 13:58N 50°54' W 001°26'0 0.0
2019-Jul-09 13:28N 50°54' W 001°26'0 0.0
2019-Jul-09 12:58N 50°54' W 001°26'0 0.0
2019-Jul-09 12:28N 50°54' W 001°26'  
Track history (hours):
 
Tides and Currents Weather Stations Pressure Air Temp Water Temp Dewpoint Dewpoint Depression Visibility Wind Speed Wind Dir Waves Ship Positions

Aurora (Bermuda)

Last reported at 2019-Jul-19 12:00 UTC. Time now 2019-Jul-19 19:11 UTC.
Position N 55°36' E 003°30'.

Length 271 m; draft 8.3 m.

Type: Ship. MMSI: 310555970.

Wind from 220 at 12 knots

Barometer 1011.1 mb
Air temperature 16.5 ° C
Visibility: greater than 27.0 NM
Dewpoint 13.9 ° C
Water temperature 15.0 ° C

Date/timePositionNaut miles runAvg speedWind from/ knotsBaromVisibWave heightAir tempDewpointWater temp
2019-Jul-19 12:00N 55°36' E 003°30'6210.9 220 / 121011.127.0 16.513.915.0
2019-Jul-19 06:21N 56°37' E 003°48'1311.6
2019-Jul-19 05:14N 56°49' E 003°54'1145.5
2019-Jul-19 05:00N 57°00' E 004°00'622.5 220 / 81008.710.8 14.513.613.0
2019-Jul-19 04:45N 56°55' E 003°57'411.8
2019-Jul-19 04:25N 56°59' E 003°58'1211.8
2019-Jul-19 03:25N 57°10' E 004°04'512.0
2019-Jul-19 03:00N 57°15' E 004°06'612.0
2019-Jul-19 02:30N 57°21' E 004°09'812.0
2019-Jul-19 01:50N 57°28' E 004°13'412.2
2019-Jul-19 01:29N 57°32' E 004°16'612.1
2019-Jul-19 01:00N 57°38' E 004°21'612.3
2019-Jul-19 00:30N 57°43' E 004°25'612.4
2019-Jul-19 00:00N 57°49' E 004°28'814.7
2019-Jul-18 23:30N 57°56' E 004°32'918.2
2019-Jul-18 23:00N 58°05' E 004°37'714.3
2019-Jul-18 22:30N 58°12' E 004°41'611.9
2019-Jul-18 22:00N 58°18' E 004°44'612.0
2019-Jul-18 21:30N 58°23' E 004°48'611.9
2019-Jul-18 21:00N 58°29' E 004°51'611.3
2019-Jul-18 20:30N 58°34' E 004°54'510.8
2019-Jul-18 20:00N 58°39' E 004°57'510.6
2019-Jul-18 19:30N 58°45' E 005°00'510.5
2019-Jul-18 19:00N 58°50' E 005°04'510.4
2019-Jul-18 18:30N 58°55' E 005°06'510.9
2019-Jul-18 18:00N 58°60' E 005°09'611.2
2019-Jul-18 17:31N 59°05' E 005°12'4 8.2
2019-Jul-18 17:00N 59°08' E 005°07'714.3
2019-Jul-18 16:30N 59°15' E 005°06'714.1
2019-Jul-18 16:00N 59°22' E 005°06'5 9.6
2019-Jul-18 15:30N 59°26' E 005°13'1 2.8
2019-Jul-18 15:00N 59°25' E 005°15'0 0.0
2019-Jul-18 14:30N 59°25' E 005°15'0 0.0
2019-Jul-18 14:00N 59°25' E 005°15'0 0.0
2019-Jul-18 13:30N 59°25' E 005°15'0 0.0
2019-Jul-18 13:00N 59°25' E 005°15'0 0.0
2019-Jul-18 12:30N 59°25' E 005°15'0 0.0
2019-Jul-18 12:00N 59°25' E 005°15'0 0.0
2019-Jul-18 11:30N 59°25' E 005°15'0 0.0
2019-Jul-18 11:00N 59°25' E 005°15'0 0.0
2019-Jul-18 10:30N 59°25' E 005°15'0 0.0
2019-Jul-18 10:00N 59°25' E 005°15'0 0.0
2019-Jul-18 09:30N 59°25' E 005°15'0 0.0
2019-Jul-18 09:00N 59°25' E 005°15'0 0.0
2019-Jul-18 08:30N 59°25' E 005°15'0 0.0
2019-Jul-18 08:00N 59°25' E 005°15'0 0.0
2019-Jul-18 07:30N 59°25' E 005°15'0 0.0
2019-Jul-18 07:00N 59°25' E 005°15'0 0.0
2019-Jul-18 06:30N 59°25' E 005°15'0 0.9
2019-Jul-18 06:00N 59°25' E 005°15'611.3
2019-Jul-18 05:30N 59°28' E 005°06'815.5
2019-Jul-18 05:00N 59°32' E 004°53'816.2
2019-Jul-18 04:30N 59°37' E 004°39'816.5
2019-Jul-18 04:00N 59°44' E 004°34'816.2
2019-Jul-18 03:30N 59°52' E 004°31'816.1
2019-Jul-18 03:00N 60°00' E 004°28'816.2
2019-Jul-18 02:30N 60°08' E 004°27'816.4
2019-Jul-18 02:00N 60°16' E 004°24'816.7
2019-Jul-18 01:30N 60°25' E 004°22'816.8
2019-Jul-18 01:00N 60°33' E 004°20'816.8
2019-Jul-18 00:30N 60°41' E 004°20'816.8
2019-Jul-18 00:00N 60°50' E 004°18'917.1
2019-Jul-17 23:30N 60°58' E 004°17'917.7
2019-Jul-17 23:00N 61°07' E 004°18'917.4
2019-Jul-17 22:30N 61°16' E 004°18'5 9.5
2019-Jul-17 22:00N 61°12' E 004°12'1311537.5 180 / 251012.110.8 13.510.613.5
2019-Jul-17 21:59N 61°25' E 004°18'816.8
2019-Jul-17 21:29N 61°33' E 004°19'817.0
2019-Jul-17 21:00N 61°41' E 004°24'816.3
2019-Jul-17 20:30N 61°49' E 004°30'816.9
2019-Jul-17 20:00N 61°56' E 004°40'815.9
2019-Jul-17 19:30N 61°58' E 004°56'816.1
2019-Jul-17 19:00N 61°54' E 005°10'816.6
2019-Jul-17 18:30N 61°55' E 005°28'714.3
2019-Jul-17 18:00N 61°54' E 005°42'815.8
2019-Jul-17 17:30N 61°52' E 005°58'816.7
2019-Jul-17 17:00N 61°51' E 006°16'815.7
2019-Jul-17 16:30N 61°50' E 006°33'810.4
2019-Jul-17 15:47N 61°51' E 006°49'0 0.0
2019-Jul-17 04:18N 61°51' E 006°49'2 8.2
2019-Jul-17 04:00N 61°52' E 006°44'714.4
2019-Jul-17 03:30N 61°50' E 006°30'816.6
2019-Jul-17 03:00N 61°51' E 006°13'816.8
2019-Jul-17 02:30N 61°52' E 005°55'713.7
2019-Jul-17 02:00N 61°54' E 005°41'917.0
2019-Jul-17 01:30N 61°55' E 005°23'815.0
2019-Jul-17 01:00N 61°55' E 005°07'713.4
2019-Jul-17 00:30N 61°58' E 004°55'815.4
2019-Jul-17 00:00N 62°01' E 004°40'816.0
2019-Jul-16 23:30N 62°06' E 004°27'816.9
2019-Jul-16 23:00N 62°14' E 004°34'918.6
2019-Jul-16 22:30N 62°22' E 004°43'918.2
2019-Jul-16 22:00N 62°30' E 004°53'918.0
2019-Jul-16 21:30N 62°37' E 005°05'918.1
2019-Jul-16 21:00N 62°44' E 005°18'918.0
2019-Jul-16 20:29N 62°50' E 005°32'918.0
2019-Jul-16 20:00N 62°57' E 005°45'917.8
2019-Jul-16 19:30N 62°58' E 006°04'917.5
2019-Jul-16 19:00N 62°58' E 006°24'917.6
2019-Jul-16 18:30N 62°57' E 006°43'817.2
2019-Jul-16 18:00N 62°52' E 006°58'815.9
2019-Jul-16 17:30N 62°44' E 006°57'917.6
2019-Jul-16 17:00N 62°39' E 007°13'92247.8
2019-Jul-16 17:00N 62°42' E 006°54'1836.0 060 / 191017.310.8 15.5 8.715.0
2019-Jul-16 16:30N 62°34' E 007°28'612.4
2019-Jul-16 16:00N 62°34' E 007°41'0 0.5
2019-Jul-16 15:29N 62°34' E 007°42'0 0.0
2019-Jul-16 14:59N 62°34' E 007°42'0 0.0
2019-Jul-16 14:29N 62°34' E 007°42'0 0.0
2019-Jul-16 13:59N 62°34' E 007°42'0 0.0
2019-Jul-16 13:29N 62°34' E 007°42'0 0.0
2019-Jul-16 12:59N 62°34' E 007°42'0 0.0
2019-Jul-16 12:29N 62°34' E 007°42'0 0.0
2019-Jul-16 11:59N 62°34' E 007°42'0 0.0
2019-Jul-16 11:29N 62°34' E 007°42'0 0.0
2019-Jul-16 10:59N 62°34' E 007°42'0 0.0
2019-Jul-16 10:29N 62°34' E 007°42'0 0.0
2019-Jul-16 09:59N 62°34' E 007°42'0 0.0
2019-Jul-16 09:29N 62°34' E 007°42'0 0.0
2019-Jul-16 08:59N 62°34' E 007°42'0 0.0
2019-Jul-16 08:29N 62°34' E 007°42'0 0.0
2019-Jul-16 07:59N 62°34' E 007°42'0 0.0
2019-Jul-16 07:29N 62°34' E 007°42'0 0.0
2019-Jul-16 06:59N 62°34' E 007°42'0 0.0
2019-Jul-16 06:29N 62°34' E 007°42'0 0.0
2019-Jul-16 05:59N 62°34' E 007°42'0 0.1
2019-Jul-16 05:30N 62°34' E 007°42'1 2.8
2019-Jul-16 05:00N 62°34' E 007°39'611.8
2019-Jul-16 04:30N 62°35' E 007°26'815.2
2019-Jul-16 04:00N 62°39' E 007°12'815.4
2019-Jul-16 03:30N 62°43' E 006°58'815.5
2019-Jul-16 03:00N 62°51' E 006°59'714.8
2019-Jul-16 02:30N 62°56' E 006°47'714.9
2019-Jul-16 02:00N 63°02' E 006°38'714.0
2019-Jul-16 01:30N 63°08' E 006°30'510.4
2019-Jul-16 01:00N 63°10' E 006°19'612.5
2019-Jul-16 00:30N 63°06' E 006°09'612.4
2019-Jul-16 00:00N 63°01' E 005°59'612.6
2019-Jul-15 23:30N 62°58' E 005°48'612.5
2019-Jul-15 23:00N 62°54' E 005°37'612.4
2019-Jul-15 22:30N 62°49' E 005°28'612.2
2019-Jul-15 22:00N 62°45' E 005°18'611.2
2019-Jul-15 21:30N 62°40' E 005°12'815.1
2019-Jul-15 21:00N 62°36' E 005°25'815.2
2019-Jul-15 20:30N 62°32' E 005°39'715.0
2019-Jul-15 20:00N 62°28' E 005°53'713.0
2019-Jul-15 19:30N 62°24' E 006°04'714.6
2019-Jul-15 19:00N 62°24' E 006°20'815.2
2019-Jul-15 18:30N 62°26' E 006°36'714.3
2019-Jul-15 18:00N 62°26' E 006°51'713.8
2019-Jul-15 17:30N 62°20' E 006°57'714.5
2019-Jul-15 17:00N 62°13' E 007°02'713.8
2019-Jul-15 16:30N 62°07' E 006°58'611.6
2019-Jul-15 16:00N 62°07' E 007°10'1 2.2
2019-Jul-15 15:30N 62°06' E 007°12'0 0.0
2019-Jul-15 15:00N 62°06' E 007°12'0 0.0
2019-Jul-15 14:30N 62°06' E 007°12'0 0.0
2019-Jul-15 14:00N 62°06' E 007°12'0 0.0
2019-Jul-15 13:30N 62°06' E 007°12'0 0.0
2019-Jul-15 13:00N 62°06' E 007°12'0 0.0
2019-Jul-15 12:30N 62°06' E 007°12'0 0.0
2019-Jul-15 12:00N 62°06' E 007°12'0 0.0
2019-Jul-15 11:30N 62°06' E 007°12'0 0.0
2019-Jul-15 11:00N 62°06' E 007°12'0 0.0
2019-Jul-15 10:30N 62°06' E 007°12'0 0.0
2019-Jul-15 10:00N 62°06' E 007°12'0 0.0
2019-Jul-15 09:30N 62°06' E 007°12'0 0.0
2019-Jul-15 09:00N 62°06' E 007°12'0 0.0
2019-Jul-15 08:30N 62°06' E 007°12'0 0.0
2019-Jul-15 08:00N 62°06' E 007°12'0 0.0
2019-Jul-15 07:30N 62°06' E 007°12'0 0.0
2019-Jul-15 07:00N 62°06' E 007°12'0 0.0
2019-Jul-15 06:30N 62°06' E 007°12'0 0.0
2019-Jul-15 06:00N 62°06' E 007°12'0 0.0
2019-Jul-15 05:30N 62°06' E 007°12'0 0.5
2019-Jul-15 05:00N 62°06' E 007°11'2 4.4
2019-Jul-15 04:30N 62°07' E 007°07'3 6.6
2019-Jul-15 04:00N 62°06' E 006°60'3 6.0
2019-Jul-15 03:30N 62°06' E 006°53'1 0.2
2019-Jul-14 23:40N 62°05' E 006°53'0 0.0
2019-Jul-14 23:28N 62°05' E 006°53'0 0.0
2019-Jul-14 22:52N 62°05' E 006°53'0 0.0
2019-Jul-14 22:28N 62°05' E 006°53'0 0.0
2019-Jul-14 21:58N 62°05' E 006°53'0 0.0
2019-Jul-14 21:22N 62°05' E 006°53'0 0.0
2019-Jul-14 20:58N 62°05' E 006°53'0 0.0
2019-Jul-14 20:28N 62°05' E 006°53'0 0.0
2019-Jul-14 19:58N 62°05' E 006°53'0 0.0
2019-Jul-14 19:28N 62°05' E 006°53'0 0.0
2019-Jul-14 18:58N 62°05' E 006°53'0 0.0
2019-Jul-14 18:28N 62°05' E 006°53'0 0.0
2019-Jul-14 17:52N 62°05' E 006°53'0 0.0
2019-Jul-14 17:28N 62°05' E 006°53'0 0.0
2019-Jul-14 16:58N 62°05' E 006°53'0 0.0
2019-Jul-14 16:28N 62°05' E 006°53'0 0.0
2019-Jul-14 15:58N 62°05' E 006°53'0 0.1
2019-Jul-14 15:30N 62°05' E 006°53'2 4.7
2019-Jul-14 15:00N 62°07' E 006°56'612.1
2019-Jul-14 14:30N 62°12' E 007°02'612.2
2019-Jul-14 14:00N 62°18' E 006°59'714.1
2019-Jul-14 13:29N 62°25' E 006°55'714.5
2019-Jul-14 13:00N 62°27' E 006°41'815.2
2019-Jul-14 12:30N 62°24' E 006°25'714.8
2019-Jul-14 12:00N 62°23' E 006°10'714.1
2019-Jul-14 11:30N 62°26' E 005°56'715.0
2019-Jul-14 11:00N 62°30' E 005°43'815.0
2019-Jul-14 10:30N 62°33' E 005°28'714.6
2019-Jul-14 10:00N 62°36' E 005°13'510.6
2019-Jul-14 09:30N 62°35' E 005°02'611.4
2019-Jul-14 09:00N 62°30' E 004°55'611.4
2019-Jul-14 08:30N 62°25' E 004°48'611.2
2019-Jul-14 08:00N 62°21' E 004°42'611.0
2019-Jul-14 07:30N 62°16' E 004°35'510.8
2019-Jul-14 07:00N 62°12' E 004°29'610.9
2019-Jul-14 06:30N 62°07' E 004°23'511.0
2019-Jul-14 06:00N 62°02' E 004°16'510.8
2019-Jul-14 05:30N 61°57' E 004°14'611.1
2019-Jul-14 05:00N 61°52' E 004°14'611.6
2019-Jul-14 04:30N 61°46' E 004°14'612.1
2019-Jul-14 04:00N 61°40' E 004°15'611.9
2019-Jul-14 03:30N 61°34' E 004°17'612.2
2019-Jul-14 03:00N 61°28' E 004°19'815.0
2019-Jul-14 02:30N 61°21' E 004°21'714.8
2019-Jul-14 02:00N 61°13' E 004°22'714.6
2019-Jul-14 01:30N 61°06' E 004°22'714.6
2019-Jul-14 01:00N 60°59' E 004°24'714.1
2019-Jul-14 00:30N 60°52' E 004°29'611.2
2019-Jul-14 00:00N 60°53' E 004°40'715.1
2019-Jul-13 23:30N 60°59' E 004°47'816.3
2019-Jul-13 23:00N 61°04' E 005°01'714.3
2019-Jul-13 22:30N 61°05' E 005°15'713.9
2019-Jul-13 22:00N 61°05' E 005°30'714.9
2019-Jul-13 21:30N 61°07' E 005°44'714.1
2019-Jul-13 21:00N 61°08' E 005°58'713.9
2019-Jul-13 20:31N 61°07' E 006°12'713.3
2019-Jul-13 20:00N 61°06' E 006°26'713.1
2019-Jul-13 19:30N 61°10' E 006°36'713.1
2019-Jul-13 19:00N 61°10' E 006°49'713.8
2019-Jul-13 18:30N 61°05' E 007°00'714.4
2019-Jul-13 18:00N 60°58' E 007°05'5 9.5
2019-Jul-13 17:30N 60°54' E 007°09'2 4.9
2019-Jul-13 17:00N 60°52' E 007°07'0 0.0
2019-Jul-13 16:30N 60°52' E 007°07'0 0.0
2019-Jul-13 16:00N 60°52' E 007°07'0 0.0
2019-Jul-13 15:30N 60°52' E 007°07'0 0.0
2019-Jul-13 15:00N 60°52' E 007°07'0 0.0
2019-Jul-13 14:30N 60°52' E 007°07'0 0.0
2019-Jul-13 14:00N 60°52' E 007°07'0 0.0
2019-Jul-13 13:30N 60°52' E 007°07'0 0.0
2019-Jul-13 13:00N 60°52' E 007°07'0 0.0
2019-Jul-13 12:30N 60°52' E 007°07'0 0.0
2019-Jul-13 12:00N 60°52' E 007°07'0 0.0
2019-Jul-13 11:30N 60°52' E 007°07'0 0.0
2019-Jul-13 11:00N 60°52' E 007°07'0 0.0
2019-Jul-13 10:30N 60°52' E 007°07'0 0.0
2019-Jul-13 10:00N 60°52' E 007°07'0 0.0
2019-Jul-13 09:30N 60°52' E 007°07'0 0.0
2019-Jul-13 09:00N 60°52' E 007°07'0 0.0
2019-Jul-13 08:30N 60°52' E 007°07'0 0.0
2019-Jul-13 08:00N 60°52' E 007°07'0 0.0
2019-Jul-13 07:30N 60°52' E 007°07'0 0.0
2019-Jul-13 07:00N 60°52' E 007°07'0 0.0
2019-Jul-13 06:30N 60°52' E 007°07'0 0.0
2019-Jul-13 06:00N 60°52' E 007°07'0 0.5
2019-Jul-13 05:28N 60°52' E 007°08'4 8.6
2019-Jul-13 05:00N 60°56' E 007°10'713.3
2019-Jul-13 04:30N 61°01' E 007°02'815.5
2019-Jul-13 04:00N 61°08' E 006°54'816.6
2019-Jul-13 03:30N 61°11' E 006°38'816.3
2019-Jul-13 03:00N 61°06' E 006°25'918.9
2019-Jul-13 02:30N 61°08' E 006°05'918.7
2019-Jul-13 02:00N 61°08' E 005°46'918.6
2019-Jul-13 01:30N 61°04' E 005°28'917.3
2019-Jul-13 01:00N 61°06' E 005°10'917.8
2019-Jul-13 00:30N 61°02' E 004°54'917.6
2019-Jul-13 00:00N 60°56' E 004°41'917.3
2019-Jul-12 23:30N 60°48' E 004°31'918.1
2019-Jul-12 23:00N 60°41' E 004°20'816.3
2019-Jul-12 22:30N 60°33' E 004°17'917.9
2019-Jul-12 22:00N 60°24' E 004°21'817.0
2019-Jul-12 21:30N 60°16' E 004°25'917.6
2019-Jul-12 21:00N 60°08' E 004°29'917.5
2019-Jul-12 20:30N 60°03' E 004°42'917.7
2019-Jul-12 20:00N 59°58' E 004°58'917.1
2019-Jul-12 19:30N 59°58' E 005°15'815.9
2019-Jul-12 19:00N 59°55' E 005°30'715.0
2019-Jul-12 18:30N 59°49' E 005°36'816.3
2019-Jul-12 18:00N 59°55' E 005°45'918.5
2019-Jul-12 17:30N 60°02' E 005°58'816.8
2019-Jul-12 17:00N 60°10' E 006°05'816.7
2019-Jul-12 16:30N 60°17' E 006°13'917.6
2019-Jul-12 16:00N 60°24' E 006°24'816.0
2019-Jul-12 15:30N 60°25' E 006°40'816.5
2019-Jul-12 15:00N 60°29' E 006°55'4 8.6
2019-Jul-12 14:30N 60°28' E 007°04'0 0.0
2019-Jul-12 14:00N 60°28' E 007°04'0 0.0
2019-Jul-12 13:27N 60°28' E 007°04'0 0.0
2019-Jul-12 12:57N 60°28' E 007°04'0 0.0
2019-Jul-12 12:30N 60°28' E 007°04'0 0.0
2019-Jul-12 12:00N 60°28' E 007°04'0 0.0
2019-Jul-12 11:24N 60°28' E 007°04'0 0.0
2019-Jul-12 10:57N 60°28' E 007°04'0 0.0
2019-Jul-12 10:30N 60°28' E 007°04'0 0.0
2019-Jul-12 09:54N 60°28' E 007°04'0 0.0
2019-Jul-12 09:30N 60°28' E 007°04'0 0.0
2019-Jul-12 09:00N 60°28' E 007°04'0 0.0
2019-Jul-12 08:30N 60°28' E 007°04'0 0.0
2019-Jul-12 08:00N 60°28' E 007°04'0 0.0
2019-Jul-12 07:30N 60°28' E 007°04'0 0.0
2019-Jul-12 06:36N 60°28' E 007°04'0 0.0
2019-Jul-12 06:30N 60°28' E 007°04'0 0.0
2019-Jul-12 05:39N 60°28' E 007°04'0 0.0
2019-Jul-12 05:30N 60°28' E 007°04'0 0.1
2019-Jul-12 05:00N 60°28' E 007°04'2 3.2
2019-Jul-12 04:30N 60°29' E 007°01'611.8
2019-Jul-12 04:00N 60°29' E 006°49'612.2
2019-Jul-12 03:30N 60°26' E 006°38'714.0
2019-Jul-12 03:00N 60°24' E 006°25'1615.8
2019-Jul-12 02:00N 60°12' E 006°04'715.0
2019-Jul-12 01:30N 60°04' E 006°02'816.4
2019-Jul-12 01:00N 59°58' E 005°51'9840.7
2019-Jul-12 01:00N 60°06' E 006°00'1734.5 220 / 51014.6 5.4 13.013.013.9
2019-Jul-12 00:30N 59°52' E 005°41'816.0
2019-Jul-12 00:00N 59°45' E 005°32'815.9
2019-Jul-11 23:31N 59°40' E 005°21'815.7
2019-Jul-11 23:00N 59°33' E 005°13'713.5
2019-Jul-11 22:30N 59°29' E 005°03'917.2
2019-Jul-11 22:00N 59°29' E 004°46'816.7
2019-Jul-11 21:30N 59°29' E 004°29'612.8
2019-Jul-11 21:00N 59°29' E 004°17'510.0
2019-Jul-11 20:30N 59°26' E 004°10'612.1
2019-Jul-11 20:00N 59°20' E 004°14'612.1
2019-Jul-11 19:30N 59°14' E 004°18'612.2
2019-Jul-11 19:00N 59°09' E 004°24'612.2
2019-Jul-11 18:30N 59°04' E 004°30'611.8
2019-Jul-11 18:00N 59°02' E 004°41'815.1
2019-Jul-11 17:30N 59°02' E 004°56'816.9
2019-Jul-11 17:01N 59°03' E 005°12'510.3
2019-Jul-11 16:31N 59°05' E 005°21'2 3.3
2019-Jul-11 16:01N 59°07' E 005°21'612.9
2019-Jul-11 15:31N 59°05' E 005°33'713.9
2019-Jul-11 15:00N 58°60' E 005°42'2 3.0
2019-Jul-11 14:30N 58°58' E 005°44'0 0.0
2019-Jul-11 14:00N 58°58' E 005°44'0 0.0
2019-Jul-11 13:30N 58°58' E 005°44'0 0.0
2019-Jul-11 13:00N 58°58' E 005°44'0 0.0
2019-Jul-11 12:30N 58°58' E 005°44'0 0.0
2019-Jul-11 12:00N 58°58' E 005°44'0 0.0
2019-Jul-11 10:57N 58°58' E 005°44'0 0.0
2019-Jul-11 10:27N 58°58' E 005°44'0 0.0
2019-Jul-11 09:51N 58°58' E 005°44'0 0.0
2019-Jul-11 09:27N 58°58' E 005°44'0 0.0
2019-Jul-11 08:42N 58°58' E 005°44'0 0.0
2019-Jul-11 08:30N 58°58' E 005°44'0 0.0
2019-Jul-11 07:45N 58°58' E 005°44'0 0.0
2019-Jul-11 07:02N 58°58' E 005°44'0 0.3
2019-Jul-11 06:59N 58°58' E 005°44'1 1.5
2019-Jul-11 06:29N 58°59' E 005°43'612.7
2019-Jul-11 06:00N 59°03' E 005°34'714.5
2019-Jul-11 05:31N 58°56' E 005°33'511.0
2019-Jul-11 05:00N 58°51' E 005°29'510.6
2019-Jul-11 04:30N 58°47' E 005°22'815.1
2019-Jul-11 04:00N 58°40' E 005°16'816.3
2019-Jul-11 03:29N 58°32' E 005°11'816.1
2019-Jul-11 03:00N 58°25' E 005°06'817.1
2019-Jul-11 02:31N 58°17' E 005°02'918.4
2019-Jul-11 02:00N 58°08' E 004°58'918.1
2019-Jul-11 01:30N 57°59' E 004°53'918.2
2019-Jul-11 01:00N 57°51' E 004°46'1017.7
2019-Jul-11 00:25N 57°41' E 004°39'717.7
2019-Jul-11 00:00N 57°35' E 004°31'917.8
2019-Jul-10 23:30N 57°27' E 004°25'1418.2
2019-Jul-10 22:43N 57°13' E 004°16'10121.5
2019-Jul-10 18:00N 55°36' E 003°24'15316.4 270 / 6 2.2 15.514.614.0
2019-Jul-10 08:38N 53°06' E 002°30'320.1
2019-Jul-10 08:31N 53°03' E 002°30'1020.3
2019-Jul-10 08:01N 52°53' E 002°28'1020.2
2019-Jul-10 07:30N 52°43' E 002°26'1019.9
2019-Jul-10 07:00N 52°33' E 002°23'1019.7
2019-Jul-10 06:30N 52°24' E 002°20'1019.4
2019-Jul-10 06:00N 52°14' E 002°16'918.7
2019-Jul-10 05:30N 52°05' E 002°15'918.5
2019-Jul-10 05:01N 51°56' E 002°16'917.7
2019-Jul-10 04:31N 51°47' E 002°13'918.0
2019-Jul-10 04:00N 51°40' E 002°05'917.9
2019-Jul-10 03:31N 51°33' E 001°55'815.4
2019-Jul-10 03:00N 51°26' E 001°59'714.1
2019-Jul-10 02:31N 51°19' E 002°02'917.2
2019-Jul-10 02:01N 51°14' E 001°51'816.6
2019-Jul-10 01:30N 51°08' E 001°42'816.5
2019-Jul-10 01:00N 51°01' E 001°34'816.6
2019-Jul-10 00:30N 50°55' E 001°25'816.9
2019-Jul-10 00:00N 50°47' E 001°21'816.4
2019-Jul-09 23:30N 50°40' E 001°15'917.3
2019-Jul-09 23:00N 50°34' E 001°05'917.4
2019-Jul-09 22:30N 50°30' E 000°53'917.3
2019-Jul-09 22:00N 50°28' E 000°40'917.1
2019-Jul-09 21:30N 50°25' E 000°27'817.0
2019-Jul-09 21:00N 50°23' E 000°14'816.8
2019-Jul-09 20:31N 50°21' E 000°01'816.1
2019-Jul-09 20:00N 50°23' W 000°11'917.1
2019-Jul-09 19:31N 50°28' W 000°22'917.0
2019-Jul-09 19:01N 50°32' W 000°34'816.4
2019-Jul-09 18:31N 50°36' W 000°45'815.7
2019-Jul-09 18:01N 50°40' W 000°56'612.7
2019-Jul-09 17:31N 50°44' W 001°04'713.3
2019-Jul-09 17:00N 50°46' W 001°14'4 8.6
2019-Jul-09 16:30N 50°49' W 001°18'510.2
2019-Jul-09 16:00N 50°53' W 001°24'2 3.7
2019-Jul-09 15:28N 50°54' W 001°26'0 0.0
2019-Jul-09 14:58N 50°54' W 001°26'0 0.0
2019-Jul-09 14:28N 50°54' W 001°26'0 0.0
2019-Jul-09 13:58N 50°54' W 001°26'0 0.0
2019-Jul-09 13:28N 50°54' W 001°26'0 0.0
2019-Jul-09 12:58N 50°54' W 001°26'0 0.0
2019-Jul-09 12:28N 50°54' W 001°26'  

Dump ship's entire track history